createdAt,value
2024-01-14T00:02:01.348Z,100608.19
2024-01-14T00:04:29.365Z,100602.06
2024-01-14T00:06:57.294Z,100609.09
2024-01-14T00:09:25.122Z,100610.81
2024-01-14T00:11:53.152Z,100606.53
2024-01-14T00:14:22.324Z,100605.56
2024-01-14T00:16:50.634Z,100600.38
2024-01-14T00:19:18.679Z,100603.16
2024-01-14T00:21:46.479Z,100595.38
2024-01-14T00:24:14.282Z,100594.53
2024-01-14T00:26:42.106Z,100589.22
2024-01-14T00:29:10.149Z,100590.09
2024-01-14T00:31:39.580Z,100583.09
2024-01-14T00:34:07.470Z,100586.69
2024-01-14T00:36:40.316Z,100583.31
2024-01-14T00:39:08.677Z,100585.03
2024-01-14T00:41:37.144Z,100572.75
2024-01-14T00:44:05.330Z,100562.44
2024-01-14T00:46:33.760Z,100558.09
2024-01-14T00:49:03.153Z,100552.88
2024-01-14T00:51:31.083Z,100545.13
2024-01-14T00:53:59.036Z,100546.03
2024-01-14T00:56:26.902Z,100546.06
2024-01-14T00:58:54.802Z,100541.84
2024-01-14T01:01:22.984Z,100536.59
2024-01-14T01:03:50.938Z,100530.53
2024-01-14T01:06:20.201Z,100534.91
2024-01-14T01:08:48.387Z,100528.75
2024-01-14T01:11:17.898Z,100525.28
2024-01-14T01:13:45.672Z,100527.06
2024-01-14T01:16:13.659Z,100514.00
2024-01-14T01:18:41.744Z,100519.28
2024-01-14T01:21:09.772Z,100517.59
2024-01-14T01:23:39.042Z,100517.69
2024-01-14T01:26:06.989Z,100510.63
2024-01-14T01:28:34.734Z,100508.88
2024-01-14T01:31:02.645Z,100510.75
2024-01-14T01:33:30.757Z,100509.06
2024-01-14T01:35:58.707Z,100512.63
2024-01-14T01:38:26.629Z,100517.03
2024-01-14T01:40:56.102Z,100506.56
2024-01-14T01:43:23.945Z,100506.63
2024-01-14T01:45:52.426Z,100512.72
2024-01-14T01:48:22.846Z,100516.09
2024-01-14T01:50:53.834Z,100504.75
2024-01-14T01:53:21.950Z,100514.22
2024-01-14T01:55:50.148Z,100517.72
2024-01-14T01:58:19.523Z,100515.97
2024-01-14T02:00:48.041Z,100512.41
2024-01-14T02:03:16.224Z,100507.97
2024-01-14T02:05:46.116Z,100502.63
2024-01-14T02:08:14.136Z,100505.31
2024-01-14T02:10:42.263Z,100496.53
2024-01-14T02:13:10.246Z,100489.47
2024-01-14T02:15:39.403Z,100483.31
2024-01-14T02:18:08.723Z,100485.88
2024-01-14T02:20:36.595Z,100477.22
2024-01-14T02:23:08.803Z,100478.16
2024-01-14T02:25:37.977Z,100475.63
2024-01-14T02:28:06.397Z,100479.03
2024-01-14T02:30:36.751Z,100479.09
2024-01-14T02:33:05.223Z,100478.41
2024-01-14T02:35:33.141Z,100468.00
2024-01-14T02:38:00.941Z,100464.41
2024-01-14T02:40:28.692Z,100471.44
2024-01-14T02:42:57.992Z,100466.94
2024-01-14T02:45:25.832Z,100464.41
2024-01-14T02:47:53.838Z,100459.28
2024-01-14T02:50:21.666Z,100460.09
2024-01-14T02:52:49.534Z,100454.00
2024-01-14T02:55:18.025Z,100460.97
2024-01-14T02:57:46.926Z,100453.31
2024-01-14T03:00:17.376Z,100446.25
2024-01-14T03:02:45.241Z,100444.59
2024-01-14T03:05:13.203Z,100443.66
2024-01-14T03:07:41.172Z,100441.81
2024-01-14T03:10:09.879Z,100437.50
2024-01-14T03:12:37.852Z,100439.03
2024-01-14T03:15:06.205Z,100440.00
2024-01-14T03:17:35.495Z,100434.78
2024-01-14T03:20:03.996Z,100433.13
2024-01-14T03:22:31.876Z,100430.47
2024-01-14T03:24:59.704Z,100424.31
2024-01-14T03:27:29.057Z,100420.88
2024-01-14T03:29:57.158Z,100414.84
2024-01-14T03:32:24.994Z,100407.97
2024-01-14T03:34:54.246Z,100400.09
2024-01-14T03:37:22.422Z,100394.09
2024-01-14T03:39:51.137Z,100394.13
2024-01-14T03:42:19.012Z,100392.50
2024-01-14T03:44:46.869Z,100386.38
2024-01-14T03:47:14.655Z,100389.00
2024-01-14T03:49:42.590Z,100398.59
2024-01-14T03:52:11.806Z,100405.59
2024-01-14T03:54:39.846Z,100394.38
2024-01-14T03:57:08.051Z,100395.19
2024-01-14T03:59:35.963Z,100395.16
2024-01-14T04:02:03.960Z,100390.00
2024-01-14T04:04:31.759Z,100391.88
2024-01-14T04:06:59.751Z,100383.16
2024-01-14T04:09:29.059Z,100384.13
2024-01-14T04:11:56.851Z,100377.09
2024-01-14T04:14:25.156Z,100385.03
2024-01-14T04:16:52.945Z,100389.44
2024-01-14T04:19:20.813Z,100380.75
2024-01-14T04:21:49.022Z,100387.75
2024-01-14T04:24:16.886Z,100381.59
2024-01-14T04:26:46.012Z,100388.47
2024-01-14T04:29:13.967Z,100387.47
2024-01-14T04:31:41.853Z,100381.31
2024-01-14T04:34:09.874Z,100390.06
2024-01-14T04:36:38.230Z,100388.31
2024-01-14T04:39:06.658Z,100387.31
2024-01-14T04:41:34.474Z,100382.16
2024-01-14T04:44:03.688Z,100372.66
2024-01-14T04:46:31.461Z,100371.69
2024-01-14T04:48:59.597Z,100367.34
2024-01-14T04:51:27.626Z,100369.84
2024-01-14T04:53:55.668Z,100374.09
2024-01-14T04:56:23.641Z,100382.16
2024-01-14T04:58:51.481Z,100377.81
2024-01-14T05:01:20.779Z,100371.66
2024-01-14T05:03:48.835Z,100366.47
2024-01-14T05:06:17.042Z,100370.09
2024-01-14T05:08:45.137Z,100375.44
2024-01-14T05:11:13.068Z,100371.16
2024-01-14T05:13:41.125Z,100367.63
2024-01-14T05:16:08.955Z,100368.59
2024-01-14T05:18:38.477Z,100366.13
2024-01-14T05:21:07.516Z,100367.19
2024-01-14T05:23:35.333Z,100365.44
2024-01-14T05:26:05.144Z,100367.28
2024-01-14T05:28:32.937Z,100361.16
2024-01-14T05:31:00.948Z,100363.06
2024-01-14T05:33:28.932Z,100362.25
2024-01-14T05:35:58.690Z,100355.56
2024-01-14T05:38:26.547Z,100346.06
2024-01-14T05:40:54.380Z,100349.53
2024-01-14T05:43:22.169Z,100351.28
2024-01-14T05:45:49.966Z,100343.56
2024-01-14T05:48:21.342Z,100336.75
2024-01-14T05:50:51.608Z,100336.75
2024-01-14T05:53:21.267Z,100338.56
2024-01-14T05:55:49.076Z,100343.69
2024-01-14T05:58:16.946Z,100335.94
2024-01-14T06:00:44.913Z,100328.28
2024-01-14T06:03:12.814Z,100332.81
2024-01-14T06:05:40.668Z,100326.81
2024-01-14T06:08:08.538Z,100330.34
2024-01-14T06:10:40.115Z,100324.47
2024-01-14T06:13:08.141Z,100313.25
2024-01-14T06:15:36.014Z,100315.06
2024-01-14T06:18:04.957Z,100306.50
2024-01-14T06:20:32.903Z,100310.16
2024-01-14T06:23:00.775Z,100308.66
2024-01-14T06:25:28.698Z,100306.97
2024-01-14T06:27:58.272Z,100306.31
2024-01-14T06:30:26.127Z,100307.34
2024-01-14T06:32:57.006Z,100306.59
2024-01-14T06:35:25.083Z,100303.22
2024-01-14T06:37:52.911Z,100306.75
2024-01-14T06:40:28.219Z,100306.81
2024-01-14T06:43:01.058Z,100295.47
2024-01-14T06:45:29.142Z,100295.59
2024-01-14T06:47:57.140Z,100283.44
2024-01-14T06:50:25.178Z,100298.44
2024-01-14T06:52:54.233Z,100289.84
2024-01-14T06:55:22.351Z,100285.47
2024-01-14T06:57:50.201Z,100285.47
2024-01-14T07:00:19.833Z,100286.56
2024-01-14T07:02:48.333Z,100280.53
2024-01-14T07:05:16.774Z,100273.59
2024-01-14T07:07:45.601Z,100276.31
2024-01-14T07:10:13.499Z,100282.38
2024-01-14T07:12:41.402Z,100283.22
2024-01-14T07:15:09.861Z,100279.75
2024-01-14T07:17:54.361Z,100284.19
2024-01-14T07:20:24.901Z,100274.53
2024-01-14T07:22:52.922Z,100272.72
2024-01-14T07:25:20.865Z,100268.34
2024-01-14T07:27:48.718Z,100262.28
2024-01-14T07:30:19.403Z,100266.72
2024-01-14T07:32:49.489Z,100259.72
2024-01-14T07:35:17.607Z,100256.22
2024-01-14T07:37:45.318Z,100258.75
2024-01-14T07:40:13.778Z,100260.38
2024-01-14T07:42:41.556Z,100267.31
2024-01-14T07:45:10.205Z,100263.78
2024-01-14T07:47:38.135Z,100256.06
2024-01-14T07:50:08.302Z,100252.53
2024-01-14T07:52:36.181Z,100259.56
2024-01-14T07:55:04.191Z,100254.22
2024-01-14T07:57:32.145Z,100254.03
2024-01-14T08:00:00.003Z,100245.28
2024-01-14T08:02:27.836Z,100247.78
2024-01-14T08:04:56.016Z,100246.84
2024-01-14T08:07:25.364Z,100251.81
2024-01-14T08:09:53.179Z,100249.22
2024-01-14T08:12:21.049Z,100246.47
2024-01-14T08:14:48.913Z,100248.06
2024-01-14T08:17:17.571Z,100249.72
2024-01-14T08:19:45.907Z,100247.03
2024-01-14T08:22:13.948Z,100249.41
2024-01-14T08:24:45.117Z,100250.22
2024-01-14T08:27:14.015Z,100253.63
2024-01-14T08:29:42.553Z,100249.22
2024-01-14T08:32:11.571Z,100245.59
2024-01-14T08:34:39.672Z,100246.50
2024-01-14T08:37:07.526Z,100248.84
2024-01-14T08:39:35.423Z,100247.84
2024-01-14T08:42:04.711Z,100240.91
2024-01-14T08:44:32.499Z,100240.03
2024-01-14T08:47:00.538Z,100248.66
2024-01-14T08:49:31.261Z,100241.63
2024-01-14T08:51:59.550Z,100242.31
2024-01-14T08:54:27.674Z,100243.09
2024-01-14T08:56:55.818Z,100229.88
2024-01-14T08:59:25.085Z,100229.69
2024-01-14T09:01:52.914Z,100232.19
2024-01-14T09:04:21.079Z,100233.75
2024-01-14T09:06:49.036Z,100222.38
2024-01-14T09:09:17.012Z,100223.22
2024-01-14T09:11:46.656Z,100226.56
2024-01-14T09:14:14.591Z,100227.94
2024-01-14T09:16:43.725Z,100227.72
2024-01-14T09:19:11.709Z,100228.44
2024-01-14T09:21:39.657Z,100222.09
2024-01-14T09:24:08.096Z,100222.00
2024-01-14T09:26:36.019Z,100220.78
2024-01-14T09:29:04.004Z,100230.69
2024-01-14T09:31:31.879Z,100224.22
2024-01-14T09:34:01.296Z,100228.81
2024-01-14T09:36:32.106Z,100231.28
2024-01-14T09:39:00.051Z,100227.38
2024-01-14T09:41:45.325Z,100227.22
2024-01-14T09:44:16.978Z,100228.22
2024-01-14T09:46:46.425Z,100219.34
2024-01-14T09:49:18.164Z,100226.25
2024-01-14T09:51:49.357Z,100223.41
2024-01-14T09:54:17.947Z,100215.47
2024-01-14T09:56:47.343Z,100216.25
2024-01-14T09:59:18.993Z,100204.19
2024-01-14T10:01:47.500Z,100209.56
2024-01-14T10:04:18.867Z,100206.16
2024-01-14T10:06:47.890Z,100206.94
2024-01-14T10:09:15.862Z,100200.13
2024-01-14T10:11:43.806Z,100200.19
2024-01-14T10:14:12.651Z,100199.16
2024-01-14T10:16:52.103Z,100202.63
2024-01-14T10:19:24.984Z,100197.50
2024-01-14T10:22:13.724Z,100195.63
2024-01-14T10:24:43.704Z,100197.47
2024-01-14T10:27:12.569Z,100188.88
2024-01-14T10:29:40.621Z,100187.19
2024-01-14T10:32:10.539Z,100186.34
2024-01-14T10:34:39.930Z,100173.25
2024-01-14T10:37:08.039Z,100167.13
2024-01-14T10:39:37.234Z,100169.63
2024-01-14T10:42:05.498Z,100168.72
2024-01-14T10:44:33.544Z,100161.91
2024-01-14T10:47:05.772Z,100156.53
2024-01-14T10:49:37.330Z,100152.50
2024-01-14T10:52:13.272Z,100156.81
2024-01-14T10:54:49.829Z,100144.59
2024-01-14T10:57:31.880Z,100142.00
2024-01-14T11:00:06.113Z,100147.22
2024-01-14T11:02:36.351Z,100138.50
2024-01-14T11:05:05.398Z,100142.88
2024-01-14T11:07:35.727Z,100125.34
2024-01-14T11:10:04.738Z,100125.16
2024-01-14T11:12:40.003Z,100117.22
2024-01-14T11:15:14.650Z,100110.72
2024-01-14T11:17:54.308Z,100109.84
2024-01-14T11:20:32.161Z,100101.06
2024-01-14T11:23:09.868Z,100093.09
2024-01-14T11:25:39.393Z,100089.47
2024-01-14T11:28:08.290Z,100085.56
2024-01-14T11:30:53.319Z,100076.50
2024-01-14T11:33:40.950Z,100061.50
2024-01-14T11:36:10.053Z,100060.34
2024-01-14T11:38:56.134Z,100053.94
2024-01-14T11:41:30.144Z,100045.88
2024-01-14T11:44:05.591Z,100046.03
2024-01-14T11:46:41.505Z,100041.44
2024-01-14T11:49:17.410Z,100039.91
2024-01-14T11:51:59.188Z,100031.94
2024-01-14T11:54:29.595Z,100019.69
2024-01-14T11:56:57.594Z,100014.38
2024-01-14T11:59:34.744Z,100020.56
2024-01-14T12:02:16.699Z,100002.06
2024-01-14T12:04:51.675Z,99996.75
2024-01-14T12:07:26.134Z,100004.47
2024-01-14T12:09:57.069Z,99994.78
2024-01-14T12:12:26.249Z,99987.06
2024-01-14T12:14:54.227Z,99978.16
2024-01-14T12:17:22.182Z,99972.06
2024-01-14T12:19:58.016Z,99966.88
2024-01-14T12:22:26.333Z,99957.19
2024-01-14T12:24:56.578Z,99945.75
2024-01-14T12:27:24.582Z,99949.88
2024-01-14T12:29:52.423Z,99936.44
2024-01-14T12:32:20.321Z,99929.28
2024-01-14T12:34:51.215Z,99924.81
2024-01-14T12:37:19.192Z,99916.28
2024-01-14T12:39:47.128Z,99921.69
2024-01-14T12:42:17.916Z,99913.34
2024-01-14T12:44:47.768Z,99905.38
2024-01-14T12:47:15.641Z,99900.09
2024-01-14T12:49:46.280Z,99898.31
2024-01-14T12:52:14.211Z,99888.81
2024-01-14T12:54:49.908Z,99877.00
2024-01-14T12:57:23.600Z,99876.94
2024-01-14T12:59:52.791Z,99875.38
2024-01-14T13:02:20.917Z,99858.53
2024-01-14T13:04:49.459Z,99865.25
2024-01-14T13:07:17.653Z,99863.28
2024-01-14T13:09:45.782Z,99853.50
2024-01-14T13:12:13.746Z,99848.06
2024-01-14T13:14:43.070Z,99842.75
2024-01-14T13:17:11.293Z,99843.59
2024-01-14T13:19:39.224Z,99837.50
2024-01-14T13:22:07.943Z,99832.94
2024-01-14T13:24:36.099Z,99829.66
2024-01-14T13:27:04.447Z,99827.09
2024-01-14T13:29:32.273Z,99828.78
2024-01-14T13:32:02.326Z,99821.09
2024-01-14T13:34:30.402Z,99821.56
2024-01-14T13:36:58.352Z,99813.00
2024-01-14T13:39:26.329Z,99815.63
2024-01-14T13:41:54.403Z,99807.03
2024-01-14T13:44:22.583Z,99799.56
2024-01-14T13:46:50.918Z,99804.09
2024-01-14T13:49:20.720Z,99798.44
2024-01-14T13:51:48.725Z,99791.59
2024-01-14T13:54:17.387Z,99792.78
2024-01-14T13:56:46.095Z,99787.81
2024-01-14T13:59:14.371Z,99790.66
2024-01-14T14:01:42.740Z,99789.78
2024-01-14T14:04:11.429Z,99790.78
2024-01-14T14:06:42.983Z,99788.22
2024-01-14T14:09:11.163Z,99786.38
2024-01-14T14:11:39.407Z,99779.53
2024-01-14T14:14:07.934Z,99776.78
2024-01-14T14:16:41.375Z,99774.06
2024-01-14T14:19:12.766Z,99764.47
2024-01-14T14:21:54.548Z,99764.31
2024-01-14T14:24:28.223Z,99760.94
2024-01-14T14:26:56.346Z,99763.69
2024-01-14T14:29:26.058Z,99761.63
2024-01-14T14:31:56.404Z,99763.88
2024-01-14T14:34:25.690Z,99753.47
2024-01-14T14:36:56.074Z,99757.44
2024-01-14T14:39:24.727Z,99746.31
2024-01-14T14:41:52.842Z,99743.34
2024-01-14T14:44:20.699Z,99739.97
2024-01-14T14:46:48.929Z,99741.03
2024-01-14T14:49:17.051Z,99725.72
2024-01-14T14:51:45.108Z,99723.81
2024-01-14T14:54:14.612Z,99732.47
2024-01-14T14:56:42.472Z,99724.66
2024-01-14T14:59:10.774Z,99715.75
2024-01-14T15:01:43.393Z,99721.97
2024-01-14T15:04:15.611Z,99720.88
2024-01-14T15:06:45.328Z,99714.19
2024-01-14T15:09:16.628Z,99714.19
2024-01-14T15:11:45.016Z,99715.75
2024-01-14T15:14:13.173Z,99714.75
2024-01-14T15:16:42.358Z,99707.78
2024-01-14T15:19:10.522Z,99700.00
2024-01-14T15:21:38.765Z,99698.09
2024-01-14T15:24:07.080Z,99693.78
2024-01-14T15:26:36.459Z,99694.56
2024-01-14T15:29:04.865Z,99692.72
2024-01-14T15:31:33.018Z,99682.25
2024-01-14T15:34:01.669Z,99681.81
2024-01-14T15:36:29.797Z,99678.47
2024-01-14T15:38:57.908Z,99681.19
2024-01-14T15:41:27.316Z,99680.13
2024-01-14T15:43:56.548Z,99683.66
2024-01-14T15:46:24.386Z,99687.81
2024-01-14T15:48:54.640Z,99687.25
2024-01-14T15:51:24.156Z,99688.25
2024-01-14T15:53:52.386Z,99680.97
2024-01-14T15:56:20.302Z,99675.69
2024-01-14T15:58:48.112Z,99675.69
2024-01-14T16:01:20.968Z,99673.84
2024-01-14T16:03:49.486Z,99666.13
2024-01-14T16:06:17.799Z,99663.72
2024-01-14T16:08:47.195Z,99661.19
2024-01-14T16:11:16.402Z,99661.25
2024-01-14T16:13:44.652Z,99658.63
2024-01-14T16:16:12.805Z,99653.13
2024-01-14T16:18:42.181Z,99653.13
2024-01-14T16:21:10.305Z,99646.91
2024-01-14T16:23:40.476Z,99653.81
2024-01-14T16:26:09.794Z,99651.38
2024-01-14T16:28:38.103Z,99653.06
2024-01-14T16:31:12.245Z,99655.94
2024-01-14T16:33:45.933Z,99650.88
2024-01-14T16:36:16.035Z,99658.50
2024-01-14T16:38:44.761Z,99655.94
2024-01-14T16:41:13.384Z,99656.00
2024-01-14T16:43:41.341Z,99651.72
2024-01-14T16:46:09.446Z,99652.31
2024-01-14T16:48:37.670Z,99652.25
2024-01-14T16:51:11.829Z,99650.44
2024-01-14T16:53:41.613Z,99654.38
2024-01-14T16:56:13.809Z,99646.25
2024-01-14T16:58:44.082Z,99662.84
2024-01-14T17:01:17.045Z,99655.22
2024-01-14T17:03:48.051Z,99657.75
2024-01-14T17:06:18.377Z,99656.47
2024-01-14T17:08:47.303Z,99649.63
2024-01-14T17:11:16.294Z,99652.28
2024-01-14T17:13:44.631Z,99653.06
2024-01-14T17:16:21.100Z,99646.50
2024-01-14T17:18:49.361Z,99643.41
2024-01-14T17:21:19.571Z,99639.47
2024-01-14T17:23:48.192Z,99633.28
2024-01-14T17:26:16.567Z,99629.75
2024-01-14T17:28:44.782Z,99637.81
2024-01-14T17:31:15.257Z,99639.41
2024-01-14T17:33:45.650Z,99642.22
2024-01-14T17:36:16.737Z,99642.41
2024-01-14T17:38:48.437Z,99637.84
2024-01-14T17:41:16.494Z,99635.28
2024-01-14T17:43:44.610Z,99633.00
2024-01-14T17:46:12.934Z,99628.69
2024-01-14T17:48:45.846Z,99629.00
2024-01-14T17:51:14.299Z,99623.81
2024-01-14T17:53:43.204Z,99629.19
2024-01-14T17:56:13.904Z,99619.03
2024-01-14T17:58:42.284Z,99609.34
2024-01-14T18:01:11.763Z,99610.19
2024-01-14T18:03:41.970Z,99596.94
2024-01-14T18:06:11.954Z,99597.63
2024-01-14T18:08:40.576Z,99594.91
2024-01-14T18:11:09.307Z,99588.97
2024-01-14T18:13:38.749Z,99587.97
2024-01-14T18:16:07.250Z,99579.97
2024-01-14T18:18:36.471Z,99575.47
2024-01-14T18:21:04.740Z,99578.13
2024-01-14T18:23:32.878Z,99583.19
2024-01-14T18:26:00.750Z,99572.81
2024-01-14T18:28:28.777Z,99568.19
2024-01-14T18:30:58.710Z,99563.00
2024-01-14T18:33:27.152Z,99561.34
2024-01-14T18:35:55.172Z,99570.53
2024-01-14T18:38:25.578Z,99573.09
2024-01-14T18:40:53.467Z,99566.09
2024-01-14T18:43:21.307Z,99567.75
2024-01-14T18:45:49.214Z,99580.47
2024-01-14T18:48:18.666Z,99577.16
2024-01-14T18:50:48.728Z,99574.53
2024-01-14T18:53:16.768Z,99568.66
2024-01-14T18:55:44.572Z,99571.97
2024-01-14T18:58:13.012Z,99565.97
2024-01-14T19:00:41.030Z,99560.75
2024-01-14T19:03:08.970Z,99571.97
2024-01-14T19:05:38.630Z,99588.63
2024-01-14T19:08:07.266Z,99580.84
2024-01-14T19:10:35.230Z,99583.47
2024-01-14T19:13:03.222Z,99585.28
2024-01-14T19:15:31.158Z,99578.09
2024-01-14T19:17:59.422Z,99585.88
2024-01-14T19:20:27.393Z,99579.75
2024-01-14T19:22:56.793Z,99566.44
2024-01-14T19:25:24.703Z,99570.69
2024-01-14T19:27:52.754Z,99569.00
2024-01-14T19:30:20.849Z,99567.09
2024-01-14T19:32:48.818Z,99562.59
2024-01-14T19:35:16.937Z,99566.25
2024-01-14T19:37:46.815Z,99568.84
2024-01-14T19:40:16.756Z,99572.13
2024-01-14T19:42:44.872Z,99563.53
2024-01-14T19:45:14.100Z,99556.47
2024-01-14T19:47:42.540Z,99557.25
2024-01-14T19:50:12.282Z,99559.97
2024-01-14T19:52:40.338Z,99567.19
2024-01-14T19:55:08.371Z,99556.31
2024-01-14T19:57:37.728Z,99550.44
2024-01-14T20:00:10.568Z,99555.66
2024-01-14T20:02:38.856Z,99556.59
2024-01-14T20:05:08.739Z,99555.75
2024-01-14T20:07:37.055Z,99558.34
2024-01-14T20:10:05.264Z,99548.88
2024-01-14T20:12:33.232Z,99545.41
2024-01-14T20:15:02.514Z,99543.97
2024-01-14T20:17:30.399Z,99536.34
2024-01-14T20:19:58.515Z,99545.09
2024-01-14T20:22:26.567Z,99533.72
2024-01-14T20:24:54.472Z,99533.53
2024-01-14T20:27:23.526Z,99530.06
2024-01-14T20:29:51.673Z,99535.44
2024-01-14T20:32:21.612Z,99531.00
2024-01-14T20:34:51.005Z,99530.13
2024-01-14T20:37:18.979Z,99527.63
2024-01-14T20:39:47.102Z,99524.06
2024-01-14T20:42:15.037Z,99521.22
2024-01-14T20:44:43.133Z,99522.78
2024-01-14T20:47:11.113Z,99516.81
2024-01-14T20:49:41.377Z,99515.81
2024-01-14T20:52:09.527Z,99519.13
2024-01-14T20:54:37.684Z,99515.47
2024-01-14T20:57:09.587Z,99513.72
2024-01-14T20:59:37.603Z,99506.69
2024-01-14T21:02:06.448Z,99506.72
2024-01-14T21:04:34.428Z,99510.97
2024-01-14T21:07:03.819Z,99510.91
2024-01-14T21:09:31.685Z,99502.28
2024-01-14T21:11:59.545Z,99505.75
2024-01-14T21:14:28.167Z,99509.28
2024-01-14T21:16:56.231Z,99516.34
2024-01-14T21:19:24.796Z,99509.97
2024-01-14T21:21:52.881Z,99516.84
2024-01-14T21:24:22.150Z,99512.34
2024-01-14T21:26:50.240Z,99516.38
2024-01-14T21:29:18.126Z,99507.44
2024-01-14T21:31:46.288Z,99506.44
2024-01-14T21:34:14.552Z,99516.09
2024-01-14T21:36:42.611Z,99517.09
2024-01-14T21:39:11.884Z,99528.31
2024-01-14T21:41:41.291Z,99522.97
2024-01-14T21:44:09.142Z,99523.22
2024-01-14T21:46:37.610Z,99517.16
2024-01-14T21:49:05.569Z,99520.59
2024-01-14T21:51:33.525Z,99519.91
2024-01-14T21:54:01.403Z,99521.38
2024-01-14T21:56:29.282Z,99522.16
2024-01-14T21:58:58.528Z,99518.00
2024-01-14T22:01:26.382Z,99512.72
2024-01-14T22:03:54.257Z,99504.81
2024-01-14T22:06:22.377Z,99505.72
2024-01-14T22:08:50.659Z,99503.06
2024-01-14T22:11:18.459Z,99502.94
2024-01-14T22:13:47.511Z,99498.59
2024-01-14T22:16:16.702Z,99499.72
2024-01-14T22:18:44.772Z,99503.19
2024-01-14T22:21:12.828Z,99504.09
2024-01-14T22:23:40.742Z,99510.31
2024-01-14T22:26:08.610Z,99512.09
2024-01-14T22:28:36.397Z,99506.41
2024-01-14T22:31:04.516Z,99507.38
2024-01-14T22:33:34.085Z,99506.69
2024-01-14T22:36:04.049Z,99508.63
2024-01-14T22:38:31.920Z,99509.56
2024-01-14T22:40:59.949Z,99516.50
2024-01-14T22:43:28.599Z,99507.84
2024-01-14T22:45:56.649Z,99503.47
2024-01-14T22:48:25.101Z,99505.22
2024-01-14T22:50:54.556Z,99497.47
2024-01-14T22:53:23.215Z,99502.81
2024-01-14T22:55:51.011Z,99494.94
2024-01-14T22:58:19.657Z,99486.06
2024-01-14T23:00:48.159Z,99488.66
2024-01-14T23:03:16.192Z,99485.84
2024-01-14T23:05:44.075Z,99484.16
2024-01-14T23:08:13.287Z,99479.72
2024-01-14T23:10:41.188Z,99479.66
2024-01-14T23:13:09.005Z,99483.97
2024-01-14T23:15:36.928Z,99476.13
2024-01-14T23:18:05.686Z,99476.13
2024-01-14T23:20:33.647Z,99481.34
2024-01-14T23:23:01.815Z,99481.34
2024-01-14T23:25:30.948Z,99477.75
2024-01-14T23:27:58.883Z,99474.88
2024-01-14T23:30:26.871Z,99479.25
2024-01-14T23:32:54.729Z,99480.25
2024-01-14T23:35:22.632Z,99486.94
2024-01-14T23:37:50.465Z,99482.59
2024-01-14T23:40:19.946Z,99472.16
2024-01-14T23:42:49.292Z,99475.59
2024-01-14T23:45:17.961Z,99470.38
2024-01-14T23:47:46.125Z,99464.16
2024-01-14T23:50:14.056Z,99463.25
2024-01-14T23:52:41.832Z,99459.66
2024-01-14T23:55:10.191Z,99452.59
2024-01-14T23:57:38.052Z,99451.59
